WEATHER DATA

YESTERDAY
Time Temp. Dewp. Hum. Wind dir Wind speed Wind gust Bar. 1h Prec. 24h Prec.
00:00 -0.5 -4.6 71 341 0.3 1.1 1026.9 0.0000 0.0000
00:21 -0.5 -4.6 71 258 0.8 2.2 1026.9 0.0000 0.0000
00:30 -0.6 -4.7 71 336 0.3 1.4 1026.8 0.0000 0.0000
00:41 -0.7 -4.8 71 306 0.3 0.8 1026.8 0.0000 0.0000
00:51 -0.7 -4.8 71 282 0.8 2.2 1026.8 0.0000 0.0000
01:21 -0.9 -4.8 72 307 0.8 2.2 1026.5 0.0000 0.0000
01:31 -0.6 -4.7 71 270 0.8 2.2 1026.4 0.0000 0.0000
01:41 -0.4 -4.5 71 334 0.8 1.7 1026.3 0.0000 0.0000
01:51 -0.3 -4.6 70 296 0.8 2.2 1026.4 0.0000 0.0000
02:01 -0.2 -4.5 70 303 0.8 1.7 1026.3 0.0000 0.0000
02:11 -0.3 -4.6 70 320 0.8 1.4 1026.2 0.0000 0.0000
02:21 -0.2 -4.5 70 306 0.8 1.7 1026.1 0.0000 0.0000
02:31 0 -4.4 69 321 0.8 1.4 1025.9 0.0000 0.0000
02:41 0 -4.6 68 270 0.8 1.7 1025.8 0.0000 0.0000
02:51 0 -4.6 68 332 0.8 1.7 1025.8 0.0000 0.0000
03:02 0.1 -4.5 68 289 0.8 2.5 1025.4 0.0000 0.0000
03:10 0.1 -4.5 68 285 0.8 2.2 1025.4 0.0000 0.0000
03:21 0.2 -4.6 67 254 0.8 2.8 1025.4 0.0000 0.0000
03:31 0.2 -4.6 67 300 0.8 1.4 1025.3 0.0000 0.0000
03:42 0.2 -4.6 67 320 0.3 1.4 1025.3 0.0000 0.0000
03:51 0.3 -4.5 67 270 0.8 2.2 1025.3 0.0000 0.0000
04:01 0.3 -4.5 67 315 1.1 2.5 1025.2 0.0000 0.0000
04:12 0.3 -4.7 66 270 0.8 2.2 1025 0.0000 0.0000
04:22 0 -5 66 270 0.3 1.4 1025 0.0000 0.0000
04:31 0 -4.8 67 318 0.8 1.7 1025 0.0000 0.0000
04:42 -0.1 -4.9 67 281 0.8 1.4 1025 0.0000 0.0000
04:52 -0.3 -5.1 67 270 0.8 3.1 1025.1 0.0000 0.0000
05:02 -0.4 -5.2 67 270 0.8 2.2 1025.1 0.0000 0.0000
05:11 -0.4 -5.2 67 343 0.8 1.4 1025.2 0.0000 0.0000
05:22 -0.6 -5.2 68 331 0.3 1.4 1025.1 0.0000 0.0000
05:32 -1 -5.6 68 315 0.3 1.4 1025.1 0.0000 0.0000
05:42 -1.2 -5.6 69 321 0.3 1.1 1025 0.0000 0.0000
05:52 -1.1 -5.5 69 310 0.8 1.7 1024.8 0.0000 0.0000
06:02 -1.2 -5.6 69 332 0.3 1.1 1024.8 0.0000 0.0000
06:12 -1.2 -5.6 69 338 0.3 1.1 1025 0.0000 0.0000
06:22 -1.2 -5.6 69 350 0.3 1.7 1024.9 0.0000 0.0000
06:32 -1.2 -5.6 69 334 0.8 1.4 1024.7 0.0000 0.0000
06:42 -1.1 -5.3 70 315 0.3 1.7 1024.8 0.0000 0.0000
06:52 -1.1 -5.3 70 315 0.3 1.4 1024.7 0.0000 0.0000
06:55 -1.1 -5.3 70 296 0.8 2.2 1024.8 0.0000 0.0000
07:03 -1.1 -5.5 69 333 0.3 1.1 1024.7 0.0000 0.0000
07:14 -1.3 -5.7 69 307 0.3 1.1 1024.6 0.0000 0.0000
07:23 -1.5 -5.9 69 320 0.3 1.1 1024.7 0.0000 0.0000
07:33 -1.7 -5.9 70 338 0.8 1.4 1024.9 0.0000 0.0000
07:43 -1.4 -5.6 70 329 0.3 1.4 1025 0.0000 0.0000
07:54 -1.3 -5.5 70 270 0.3 1.4 1025 0.0000 0.0000
08:13 -1.3 -5.5 70 329 0.3 0.8 1025.1 0.0000 0.0000
08:24 -1.2 -5.4 70 270 0.3 1.1 1025 0.0000 0.0000
08:34 -1.2 -5.4 70 330 0.3 1.4 1024.9 0.0000 0.0000
08:43 -1.2 -5.6 69 349 0.3 1.1 1024.9 0.0000 0.0000
08:54 -1.4 -5.6 70 324 0.3 1.1 1024.8 0.0000 0.0000
09:04 -1.3 -5.5 70 270 0.3 0.8 1024.7 0.0000 0.0000
09:14 -1.2 -5.4 70 270 0.3 1.1 1024.6 0.0000 0.0000
09:24 -0.8 -5 70 270 0.3 1.1 1024.6 0.0000 0.0000
09:34 -0.5 -4.9 69 339 0.8 1.4 1024.4 0.0000 0.0000
09:44 -0.1 -4.5 69 348 0.3 1.7 1024.4 0.0000 0.0000
09:54 0.3 -4.3 68 270 0.3 1.1 1024.1 0.0000 0.0000
10:04 1.5 -3.2 69 329 0.3 1.4 1024.1 0.0000 0.0000
10:14 4.4 -1.2 66 348 0.3 1.1 1024.1 0.0000 0.0000
10:24 6.1 -0.6 62 270 0.3 1.1 1024.1 0.0000 0.0000
10:34 6.5 -1 58 0 0.3 0.8 1024.2 0.0000 0.0000
10:45 6.4 -1.3 57 349 0.3 1.1 1024.1 0.0000 0.0000
10:54 6.7 -1.1 57 357 0.3 1.1 1024 0.0000 0.0000
11:04 7.2 -0.7 57 270 0.3 1.1 1024.1 0.0000 0.0000
11:15 7.9 0.2 58 270 0.3 0.8 1024 0.0000 0.0000
11:25 8.7 0.7 57 0 0.8 1024 0.0000 0.0000
11:34 9.4 0.8 55 225 0.3 0.8 1023.8 0.0000 0.0000
11:44 10.1 1.5 55 0.3 0.8 1023.9 0.0000 0.0000
11:55 10.8 1.9 54 351 0.3 0.8 1023.7 0.0000 0.0000
12:13 11.8 2 51 14 0.3 0.8 1023.4 0.0000 0.0000
12:22 12.2 2.6 52 30 0.3 0.8 1023.2 0.0000 0.0000
12:32 12.9 3 51 0 0.3 0.8 1023.1 0.0000 0.0000
12:43 13.1 2.3 48 329 0.3 0.8 1023 0.0000 0.0000
12:53 13.3 2.5 48 45 0.3 0.8 1022.8 0.0000 0.0000
13:02 13.6 2.8 48 15 0.3 0.8 1022.6 0.0000 0.0000
13:12 14 3.2 48 0 0.3 0.8 1022.5 0.0000 0.0000
13:33 14 2.6 46 350 0.3 0.8 1022.2 0.0000 0.0000
13:42 14.1 2.4 45 329 0.3 1.1 1022.1 0.0000 0.0000
13:53 14 2 44 20 0.3 1.1 1021.9 0.0000 0.0000
14:03 13.7 2 45 11 0.3 1.1 1021.8 0.0000 0.0000
14:12 13.6 1.9 45 12 0.3 0.8 1021.8 0.0000 0.0000
14:22 13.4 1.7 45 0 0.3 0.8 1021.8 0.0000 0.0000
14:33 13 1.4 45 351 0.3 0.8 1021.6 0.0000 0.0000
14:43 11.5 0 45 225 0.3 1.1 1021.6 0.0000 0.0000
14:52 10.4 -0.4 47 11 0.3 0.8 1021.6 0.0000 0.0000
14:54 10.3 -0.2 48 16 0.3 0.8 1021.6 0.0000 0.0000
15:04 9.3 -0.8 49 6 0.3 0.8 1021.6 0.0000 0.0000
15:15 8.4 -1.2 50 36 0.3 0.8 1021.6 0.0000 0.0000
15:25 7.7 -1.1 53 341 0.3 0.8 1021.6 0.0000 0.0000
15:34 7 -1.5 54 348 0.3 0.8 1021.7 0.0000 0.0000
15:45 6.4 -1.5 56 15 0.3 0.8 1021.6 0.0000 0.0000
15:55 5.8 -1.8 57 0.3 0.8 1021.5 0.0000 0.0000
16:05 5.3 -2 58 45 0.3 0.8 1021.2 0.0000 0.0000
16:14 4.9 -1.9 60 10 0.3 1.1 1021.3 0.0000 0.0000
16:25 4.5 -2.1 61 26 0.3 0.8 1021.2 0.0000 0.0000
16:35 4.1 -2.2 62 225 0.3 1.1 1021.3 0.0000 0.0000
16:45 3.7 -2.4 63 225 0.3 0.8 1021.2 0.0000 0.0000
16:55 3.4 -2.4 64 315 0.3 0.8 1021.1 0.0000 0.0000
17:07 2.9 -2.7 65 270 0.3 0.8 1021 0.0000 0.0000
17:17 2.6 -2.7 66 270 0.3 0.8 1021.3 0.0000 0.0000
17:27 2.1 -3.2 66 315 0.3 0.8 1021.2 0.0000 0.0000
17:37 1.7 -3.2 68 270 0.3 0.8 1021.3 0.0000 0.0000
17:48 1.4 -3.2 69 270 0.3 0.8 1021.5 0.0000 0.0000
17:57 1.1 -3.3 70 270 0.3 0.8 1021.3 0.0000 0.0000
18:07 0.8 -3.6 70 230 0.3 0.8 1021.3 0.0000 0.0000
18:17 0.4 -3.8 71 270 0.3 0.8 1021.6 0.0000 0.0000
18:28 0.2 -3.8 72 270 0.3 0.8 1021.5 0.0000 0.0000
18:37 0 -3.8 73 270 0.3 1.1 1021.5 0.0000 0.0000
18:47 -0.3 -4.1 73 315 0.3 1.1 1021.3 0.0000 0.0000
18:58 -0.6 -4.4 73 270 0.3 0.8 1021.6 0.0000 0.0000
19:08 -0.5 -3.9 75 315 0.3 0.8 1021.6 0.0000 0.0000
19:17 -0.5 -3.9 75 344 0.3 1.1 1021.5 0.0000 0.0000
19:27 -0.5 -4.1 74 320 0.3 1.1 1021.3 0.0000 0.0000
19:38 -0.6 -4.2 74 270 0.3 0.8 1021.5 0.0000 0.0000
19:48 -0.8 -4.4 74 309 0.3 0.8 1021.6 0.0000 0.0000
19:57 -1 -4.6 74 303 0.3 0.8 1021.5 0.0000 0.0000
20:08 -1.1 -4.5 75 315 0.3 1.1 1021.6 0.0000 0.0000
20:18 -1.3 -4.7 75 319 0.3 0.8 1021.7 0.0000 0.0000
20:28 -1.6 -5 75 302 0.8 1.4 1021.8 0.0000 0.0000
20:38 -1.7 -5 76 310 0.3 0.8 1021.6 0.0000 0.0000
20:48 -1.8 -4.9 77 270 0.3 0.8 1021.5 0.0000 0.0000
20:58 -1.5 -4.5 78 302 0.3 1.1 1021.6 0.0000 0.0000
21:08 -1.5 -4.8 76 315 0.3 0.8 1021.7 0.0000 0.0000
21:18 -1.6 -4.9 76 270 0.3 1.1 1021.7 0.0000 0.0000
21:28 -1.9 -5.1 76 270 0.3 0.8 1021.6 0.0000 0.0000
21:38 -2.1 -5.2 77 270 0.3 0.8 1021.7 0.0000 0.0000
21:48 -1.8 -4.7 78 315 0.3 0.8 1021.6 0.0000 0.0000
21:58 -1.8 -4.9 77 315 0.3 1.1 1021.6 0.0000 0.0000
22:08 -1.8 -4.7 78 270 0.3 0.8 1021.7 0.0000 0.0000
22:18 -1.4 -4.4 78 270 0.3 1.1 1021.5 0.0000 0.0000
22:29 -1.2 -4.3 77 270 0.3 1.1 1021.5 0.0000 0.0000
22:36 -1 -4.1 77 323 0.3 1.7 1021.5 0.0000 0.0000
22:47 -1.2 -4.6 75 318 0.8 1.1 1021.5 0.0000 0.0000
22:56 -1.4 -4.7 76 334 0.3 1.1 1021.6 0.0000 0.0000
23:06 -1.7 -5 76 230 0.3 0.8 1021.7 0.0000 0.0000
23:16 -2.1 -5.3 76 270 0.3 0.8 1021.7 0.0000 0.0000
23:27 -2.4 -5.5 77 270 0.3 1.4 1021.8 0.0000 0.0000
23:36 -2.5 -5.4 78 315 0.3 1.1 1021.7 0.0000 0.0000
23:46 -2.8 -5.7 78 270 0.3 0.8 1021.8 0.0000 0.0000
23:57 -3 -5.9 78 270 0.3 0.8 1021.9 0.0000 0.0000

DAY STATISTIC

2019-02-18
TEMPERATURE
AVERAGE
2.2
HIGH
14.1
13:42
LOW
-3.0
23:57
PRESSURE
AVERAGE
1023.4
HIGH
1026.9
00:00
LOW
1021.0
17:07
DEWPOINT
AVERAGE
-3.3
HIGH
3.2
13:12
LOW
-5.9
07:23
HUMIDITY
AVERAGE
66
HIGH
78
20:58
LOW
44
13:53
WIND SPEED
AVERAGE
0.4
HIGH
1.1
04:01
WIND GUST
AVERAGE
1.2
HIGH
3.1
04:52
WIND DIRECTION
PREVAILING
NW
37.1%
N
22.1
NE
3.6
E
0.0
SE
0.0
S
0.0
SW
4.3
W
30.7
NW
37.1
PRECIPITATION
RAIN HOUR
0.0
RAIN DAY
0.0
TEMPERATURE (°C)
LOW
-3.0
HIGH
14.1
AVERAGE
2.2
PRESSURE (hpa)
LOW
1021.0
HIGH
1026.9
AVERAGE
1023.4
DEVICE